New Hope, Alabama
Current Conditions -  °F | °C
As of 12:58 AM on Saturday 20 Dec 2014 (Local Time) from KHUA Reporting Station
Overcast Overcast  
Wind Chill: 34°   Ceiling: 6000
Heat Index: 39°   Visibility: 10mi
Dew Point: 32°   Wind: 8mph
Humidity: 75%   Direction: 30°NNE
Pressure: 30.16"   Gusts: NA
Location:  34.54°N, 86.39°W
Report Text: KHUA 200658Z AUTO 03007KT 10SM OVC060 04/00 A3016 RMK AO2 SLP218
Loading
Personal Weather Stations






























Interactive Weather Map New forecast layout! Learn more

10-Day Weather Forecast

Advertisements
Track Severe Weather on mobile